sensor_id;sensor_type;location;lat;lon;timestamp;temperature;humidity
9043;DHT22;4556;49.150;8.808;2023-02-28T00:01:07;2.50;99.90
9043;DHT22;4556;49.150;8.808;2023-02-28T00:03:35;0.30;99.90
9043;DHT22;4556;49.150;8.808;2023-02-28T00:06:02;1.70;99.90
9043;DHT22;4556;49.150;8.808;2023-02-28T00:08:30;-0.70;99.90
9043;DHT22;4556;49.150;8.808;2023-02-28T00:11:01;-1.00;99.90
9043;DHT22;4556;49.150;8.808;2023-02-28T00:13:31;-0.60;99.90
9043;DHT22;4556;49.150;8.808;2023-02-28T00:16:01;1.30;99.90
9043;DHT22;4556;49.150;8.808;2023-02-28T00:18:28;-0.60;99.90
9043;DHT22;4556;49.150;8.808;2023-02-28T00:23:23;-0.90;99.90
9043;DHT22;4556;49.150;8.808;2023-02-28T00:25:51;1.50;99.90
9043;DHT22;4556;49.150;8.808;2023-02-28T00:28:20;-1.10;99.90
9043;DHT22;4556;49.150;8.808;2023-02-28T00:30:49;-0.90;99.90
9043;DHT22;4556;49.150;8.808;2023-02-28T00:33:16;-0.30;99.90
9043;DHT22;4556;49.150;8.808;2023-02-28T00:35:43;-1.00;99.90
9043;DHT22;4556;49.150;8.808;2023-02-28T00:38:11;-1.00;99.90
9043;DHT22;4556;49.150;8.808;2023-02-28T00:40:38;-1.00;99.90
9043;DHT22;4556;49.150;8.808;2023-02-28T00:43:05;1.20;99.90
9043;DHT22;4556;49.150;8.808;2023-02-28T00:45:32;-1.00;99.90
9043;DHT22;4556;49.150;8.808;2023-02-28T00:48:01;-1.00;99.90
9043;DHT22;4556;49.150;8.808;2023-02-28T00:50:28;-1.10;99.90
9043;DHT22;4556;49.150;8.808;2023-02-28T00:52:55;-1.10;99.90
9043;DHT22;4556;49.150;8.808;2023-02-28T00:55:22;-1.10;99.90
9043;DHT22;4556;49.150;8.808;2023-02-28T00:57:49;-1.10;99.90
9043;DHT22;4556;49.150;8.808;2023-02-28T01:00:17;-1.10;99.90
9043;DHT22;4556;49.150;8.808;2023-02-28T01:02:44;-1.10;99.90
9043;DHT22;4556;49.150;8.808;2023-02-28T01:05:13;-0.30;99.90
9043;DHT22;4556;49.150;8.808;2023-02-28T01:07:40;-1.10;99.90
9043;DHT22;4556;49.150;8.808;2023-02-28T01:10:08;-1.00;99.90
9043;DHT22;4556;49.150;8.808;2023-02-28T01:12:35;-1.10;99.90
9043;DHT22;4556;49.150;8.808;2023-02-28T01:15:03;-1.10;99.90
9043;DHT22;4556;49.150;8.808;2023-02-28T01:17:30;-1.10;99.90
9043;DHT22;4556;49.150;8.808;2023-02-28T01:19:57;-0.60;99.90
9043;DHT22;4556;49.150;8.808;2023-02-28T01:22:26;-1.10;99.90
9043;DHT22;4556;49.150;8.808;2023-02-28T01:24:53;-1.10;99.90
9043;DHT22;4556;49.150;8.808;2023-02-28T01:27:20;-1.10;99.90
9043;DHT22;4556;49.150;8.808;2023-02-28T01:29:47;-0.10;99.90
9043;DHT22;4556;49.150;8.808;2023-02-28T01:32:14;-1.20;99.90
9043;DHT22;4556;49.150;8.808;2023-02-28T01:34:41;-1.20;99.90
9043;DHT22;4556;49.150;8.808;2023-02-28T01:37:09;-1.30;99.90
9043;DHT22;4556;49.150;8.808;2023-02-28T01:39:38;1.10;99.90
9043;DHT22;4556;49.150;8.808;2023-02-28T01:42:05;-2.30;99.90
9043;DHT22;4556;49.150;8.808;2023-02-28T01:44:58;-1.30;99.90
9043;DHT22;4556;49.150;8.808;2023-02-28T01:47:28;-1.20;99.90
9043;DHT22;4556;49.150;8.808;2023-02-28T01:49:56;-1.30;99.90
9043;DHT22;4556;49.150;8.808;2023-02-28T01:52:24;-1.30;99.90
9043;DHT22;4556;49.150;8.808;2023-02-28T01:54:55;-1.30;99.90
9043;DHT22;4556;49.150;8.808;2023-02-28T01:57:25;-1.40;99.90
9043;DHT22;4556;49.150;8.808;2023-02-28T01:59:57;-1.30;99.90
9043;DHT22;4556;49.150;8.808;2023-02-28T02:02:26;-1.40;99.90
9043;DHT22;4556;49.150;8.808;2023-02-28T02:04:55;-1.40;99.90
9043;DHT22;4556;49.150;8.808;2023-02-28T02:07:23;-1.40;99.90
9043;DHT22;4556;49.150;8.808;2023-02-28T02:10:10;-1.50;99.90
9043;DHT22;4556;49.150;8.808;2023-02-28T02:13:17;-1.50;99.90
9043;DHT22;4556;49.150;8.808;2023-02-28T02:15:53;-1.50;99.90
9043;DHT22;4556;49.150;8.808;2023-02-28T02:18:27;-0.10;99.90
9043;DHT22;4556;49.150;8.808;2023-02-28T02:21:25;-1.70;99.90
9043;DHT22;4556;49.150;8.808;2023-02-28T02:27:33;-1.50;99.90
9043;DHT22;4556;49.150;8.808;2023-02-28T02:36:23;-1.60;99.90
9043;DHT22;4556;49.150;8.808;2023-02-28T02:38:55;-1.60;99.90
9043;DHT22;4556;49.150;8.808;2023-02-28T02:41:30;-1.60;99.90
9043;DHT22;4556;49.150;8.808;2023-02-28T02:44:04;-1.60;99.90
9043;DHT22;4556;49.150;8.808;2023-02-28T02:46:35;-1.60;99.90
9043;DHT22;4556;49.150;8.808;2023-02-28T02:49:05;-0.90;99.90
9043;DHT22;4556;49.150;8.808;2023-02-28T02:51:36;-1.60;99.90
9043;DHT22;4556;49.150;8.808;2023-02-28T02:54:08;-1.60;99.90
9043;DHT22;4556;49.150;8.808;2023-02-28T02:56:36;-1.70;99.90
9043;DHT22;4556;49.150;8.808;2023-02-28T02:59:09;-1.60;99.90
9043;DHT22;4556;49.150;8.808;2023-02-28T03:01:38;-1.70;99.90
9043;DHT22;4556;49.150;8.808;2023-02-28T03:04:10;0.00;99.90
9043;DHT22;4556;49.150;8.808;2023-02-28T03:06:40;-2.90;99.90
9043;DHT22;4556;49.150;8.808;2023-02-28T03:09:08;1.30;99.90
9043;DHT22;4556;49.150;8.808;2023-02-28T03:11:35;0.40;99.90
9043;DHT22;4556;49.150;8.808;2023-02-28T03:14:15;-1.90;99.90
9043;DHT22;4556;49.150;8.808;2023-02-28T03:19:47;-1.80;99.90
9043;DHT22;4556;49.150;8.808;2023-02-28T03:22:32;-1.80;99.90
9043;DHT22;4556;49.150;8.808;2023-02-28T03:25:06;-1.80;99.90
9043;DHT22;4556;49.150;8.808;2023-02-28T03:27:38;1.30;99.90
9043;DHT22;4556;49.150;8.808;2023-02-28T03:30:12;-2.90;99.90
9043;DHT22;4556;49.150;8.808;2023-02-28T03:32:47;-1.80;99.90
9043;DHT22;4556;49.150;8.808;2023-02-28T03:35:20;-2.00;99.90
9043;DHT22;4556;49.150;8.808;2023-02-28T03:37:53;-1.80;99.90
9043;DHT22;4556;49.150;8.808;2023-02-28T03:40:24;-1.80;99.90
9043;DHT22;4556;49.150;8.808;2023-02-28T03:42:55;-1.80;99.90
9043;DHT22;4556;49.150;8.808;2023-02-28T03:45:26;-1.80;99.90
9043;DHT22;4556;49.150;8.808;2023-02-28T03:47:57;-1.80;99.90
9043;DHT22;4556;49.150;8.808;2023-02-28T03:50:31;-1.70;99.90
9043;DHT22;4556;49.150;8.808;2023-02-28T03:53:06;-1.70;99.90
9043;DHT22;4556;49.150;8.808;2023-02-28T03:55:40;-1.70;99.90
9043;DHT22;4556;49.150;8.808;2023-02-28T03:58:14;-1.70;99.90
9043;DHT22;4556;49.150;8.808;2023-02-28T04:00:46;-1.70;99.90
9043;DHT22;4556;49.150;8.808;2023-02-28T04:03:14;-1.70;99.90
9043;DHT22;4556;49.150;8.808;2023-02-28T04:05:50;-1.70;99.90
9043;DHT22;4556;49.150;8.808;2023-02-28T04:08:19;-1.70;99.90
9043;DHT22;4556;49.150;8.808;2023-02-28T04:10:51;-1.70;99.90
9043;DHT22;4556;49.150;8.808;2023-02-28T04:13:20;-1.70;99.90
9043;DHT22;4556;49.150;8.808;2023-02-28T04:18:14;-1.70;99.90
9043;DHT22;4556;49.150;8.808;2023-02-28T04:23:09;-1.60;99.90
9043;DHT22;4556;49.150;8.808;2023-02-28T04:25:37;-1.60;99.90
9043;DHT22;4556;49.150;8.808;2023-02-28T04:28:08;-1.60;99.90
9043;DHT22;4556;49.150;8.808;2023-02-28T04:33:02;-1.60;99.90
9043;DHT22;4556;49.150;8.808;2023-02-28T04:35:29;-1.40;99.90
9043;DHT22;4556;49.150;8.808;2023-02-28T04:37:56;-1.50;99.90
9043;DHT22;4556;49.150;8.808;2023-02-28T04:40:23;-1.60;99.90
9043;DHT22;4556;49.150;8.808;2023-02-28T04:42:52;-1.50;99.90
9043;DHT22;4556;49.150;8.808;2023-02-28T04:45:19;-1.20;99.90
9043;DHT22;4556;49.150;8.808;2023-02-28T04:47:46;-0.90;99.90
9043;DHT22;4556;49.150;8.808;2023-02-28T04:50:15;-1.50;99.90
9043;DHT22;4556;49.150;8.808;2023-02-28T04:52:44;-1.50;99.90
9043;DHT22;4556;49.150;8.808;2023-02-28T04:55:11;-1.70;99.90
9043;DHT22;4556;49.150;8.808;2023-02-28T04:57:38;-1.90;99.90
9043;DHT22;4556;49.150;8.808;2023-02-28T05:00:11;-0.60;99.90
9043;DHT22;4556;49.150;8.808;2023-02-28T05:02:42;-1.40;99.90
9043;DHT22;4556;49.150;8.808;2023-02-28T05:05:09;1.10;99.90
9043;DHT22;4556;49.150;8.808;2023-02-28T05:07:37;-1.40;99.90
9043;DHT22;4556;49.150;8.808;2023-02-28T05:10:05;-1.10;99.90
9043;DHT22;4556;49.150;8.808;2023-02-28T05:12:32;-1.20;99.90
9043;DHT22;4556;49.150;8.808;2023-02-28T05:14:59;1.60;99.90
9043;DHT22;4556;49.150;8.808;2023-02-28T05:17:29;-0.20;99.90
9043;DHT22;4556;49.150;8.808;2023-02-28T05:19:56;1.30;99.90
9043;DHT22;4556;49.150;8.808;2023-02-28T05:22:23;1.10;99.90
9043;DHT22;4556;49.150;8.808;2023-02-28T05:27:18;-1.50;99.90
9043;DHT22;4556;49.150;8.808;2023-02-28T05:29:45;-1.60;99.90
9043;DHT22;4556;49.150;8.808;2023-02-28T05:32:12;-1.60;99.90
9043;DHT22;4556;49.150;8.808;2023-02-28T05:34:41;-1.60;99.90
9043;DHT22;4556;49.150;8.808;2023-02-28T05:37:12;0.90;99.90
9043;DHT22;4556;49.150;8.808;2023-02-28T05:39:39;-0.10;99.90
9043;DHT22;4556;49.150;8.808;2023-02-28T05:42:06;-1.60;99.90
9043;DHT22;4556;49.150;8.808;2023-02-28T05:44:36;0.90;99.90
9043;DHT22;4556;49.150;8.808;2023-02-28T05:47:03;-1.40;99.90
9043;DHT22;4556;49.150;8.808;2023-02-28T05:49:30;-1.60;99.90
9043;DHT22;4556;49.150;8.808;2023-02-28T05:51:59;1.20;99.90
9043;DHT22;4556;49.150;8.808;2023-02-28T05:54:26;-1.70;99.90
9043;DHT22;4556;49.150;8.808;2023-02-28T05:56:52;-1.60;99.90
9043;DHT22;4556;49.150;8.808;2023-02-28T05:59:20;0.30;99.90
9043;DHT22;4556;49.150;8.808;2023-02-28T06:01:47;1.30;99.90
9043;DHT22;4556;49.150;8.808;2023-02-28T06:04:16;1.20;99.90
9043;DHT22;4556;49.150;8.808;2023-02-28T06:09:14;-1.60;99.90
9043;DHT22;4556;49.150;8.808;2023-02-28T06:11:43;-1.80;99.90
9043;DHT22;4556;49.150;8.808;2023-02-28T06:14:14;0.60;99.90
9043;DHT22;4556;49.150;8.808;2023-02-28T06:19:10;-1.60;99.90
9043;DHT22;4556;49.150;8.808;2023-02-28T06:21:38;0.90;99.90
9043;DHT22;4556;49.150;8.808;2023-02-28T06:24:05;-1.50;99.90
9043;DHT22;4556;49.150;8.808;2023-02-28T06:26:34;-1.60;99.90
9043;DHT22;4556;49.150;8.808;2023-02-28T06:29:01;1.40;99.90
9043;DHT22;4556;49.150;8.808;2023-02-28T06:31:28;1.30;99.90
9043;DHT22;4556;49.150;8.808;2023-02-28T06:36:23;-1.60;99.90
9043;DHT22;4556;49.150;8.808;2023-02-28T06:38:51;0.80;99.90
9043;DHT22;4556;49.150;8.808;2023-02-28T06:41:21;-1.60;99.90
9043;DHT22;4556;49.150;8.808;2023-02-28T06:43:50;-1.60;99.90
9043;DHT22;4556;49.150;8.808;2023-02-28T06:48:45;-1.50;99.90
9043;DHT22;4556;49.150;8.808;2023-02-28T06:51:15;-0.30;99.90
9043;DHT22;4556;49.150;8.808;2023-02-28T06:56:12;-1.50;99.90
9043;DHT22;4556;49.150;8.808;2023-02-28T06:58:41;-0.50;99.90
9043;DHT22;4556;49.150;8.808;2023-02-28T07:01:09;-1.50;99.90
9043;DHT22;4556;49.150;8.808;2023-02-28T07:03:37;1.80;99.90
9043;DHT22;4556;49.150;8.808;2023-02-28T07:06:05;-0.80;99.90
9043;DHT22;4556;49.150;8.808;2023-02-28T07:08:33;1.40;99.90
9043;DHT22;4556;49.150;8.808;2023-02-28T07:11:01;1.30;99.90
9043;DHT22;4556;49.150;8.808;2023-02-28T07:13:29;-1.50;99.90
9043;DHT22;4556;49.150;8.808;2023-02-28T07:15:58;0.40;99.90
9043;DHT22;4556;49.150;8.808;2023-02-28T07:18:28;-1.10;99.90
9043;DHT22;4556;49.150;8.808;2023-02-28T07:20:56;0.30;99.90
9043;DHT22;4556;49.150;8.808;2023-02-28T07:23:24;1.10;99.90
9043;DHT22;4556;49.150;8.808;2023-02-28T07:25:51;-1.10;99.90
9043;DHT22;4556;49.150;8.808;2023-02-28T07:28:18;0.80;99.90
9043;DHT22;4556;49.150;8.808;2023-02-28T07:30:46;-1.50;99.90
9043;DHT22;4556;49.150;8.808;2023-02-28T07:33:13;-1.30;99.90
9043;DHT22;4556;49.150;8.808;2023-02-28T07:35:42;-1.10;99.90
9043;DHT22;4556;49.150;8.808;2023-02-28T07:38:10;1.60;99.90
9043;DHT22;4556;49.150;8.808;2023-02-28T07:40:39;0.80;99.90
9043;DHT22;4556;49.150;8.808;2023-02-28T07:43:06;0.00;99.90
9043;DHT22;4556;49.150;8.808;2023-02-28T07:45:33;0.00;99.90
9043;DHT22;4556;49.150;8.808;2023-02-28T07:48:01;0.40;99.90
9043;DHT22;4556;49.150;8.808;2023-02-28T07:50:28;-0.90;99.90
9043;DHT22;4556;49.150;8.808;2023-02-28T07:52:58;-0.90;99.90
9043;DHT22;4556;49.150;8.808;2023-02-28T07:55:24;-0.80;99.90
9043;DHT22;4556;49.150;8.808;2023-02-28T07:57:51;-0.80;99.90
9043;DHT22;4556;49.150;8.808;2023-02-28T08:00:19;-0.70;99.90
9043;DHT22;4556;49.150;8.808;2023-02-28T08:02:47;-0.60;99.90
9043;DHT22;4556;49.150;8.808;2023-02-28T08:05:14;-0.50;99.90
9043;DHT22;4556;49.150;8.808;2023-02-28T08:07:41;1.40;99.90
9043;DHT22;4556;49.150;8.808;2023-02-28T08:10:10;0.00;99.90
9043;DHT22;4556;49.150;8.808;2023-02-28T08:12:37;-0.30;99.90
9043;DHT22;4556;49.150;8.808;2023-02-28T08:15:06;-0.20;99.90
9043;DHT22;4556;49.150;8.808;2023-02-28T08:17:33;-0.20;99.90
9043;DHT22;4556;49.150;8.808;2023-02-28T08:20:00;2.60;99.90
9043;DHT22;4556;49.150;8.808;2023-02-28T08:22:27;1.20;99.90
9043;DHT22;4556;49.150;8.808;2023-02-28T08:24:54;1.90;99.90
9043;DHT22;4556;49.150;8.808;2023-02-28T08:27:23;0.10;99.90
9043;DHT22;4556;49.150;8.808;2023-02-28T08:29:50;1.50;99.90
9043;DHT22;4556;49.150;8.808;2023-02-28T08:32:17;2.20;99.90
9043;DHT22;4556;49.150;8.808;2023-02-28T08:34:45;1.70;99.90
9043;DHT22;4556;49.150;8.808;2023-02-28T08:37:12;0.60;99.90
9043;DHT22;4556;49.150;8.808;2023-02-28T08:39:39;1.30;99.90
9043;DHT22;4556;49.150;8.808;2023-02-28T08:42:06;3.20;99.90
9043;DHT22;4556;49.150;8.808;2023-02-28T08:44:35;0.90;99.90
9043;DHT22;4556;49.150;8.808;2023-02-28T08:47:03;-1.10;99.90
9043;DHT22;4556;49.150;8.808;2023-02-28T08:49:30;0.30;99.90
9043;DHT22;4556;49.150;8.808;2023-02-28T08:51:57;2.40;99.90
9043;DHT22;4556;49.150;8.808;2023-02-28T08:54:24;1.70;99.90
9043;DHT22;4556;49.150;8.808;2023-02-28T08:56:51;0.40;99.90
9043;DHT22;4556;49.150;8.808;2023-02-28T08:59:18;0.60;99.90
9043;DHT22;4556;49.150;8.808;2023-02-28T09:01:47;2.70;99.90
9043;DHT22;4556;49.150;8.808;2023-02-28T09:04:14;3.70;99.90
9043;DHT22;4556;49.150;8.808;2023-02-28T09:06:43;2.50;99.90
9043;DHT22;4556;49.150;8.808;2023-02-28T09:09:10;3.40;99.90
9043;DHT22;4556;49.150;8.808;2023-02-28T09:11:38;0.50;99.90
9043;DHT22;4556;49.150;8.808;2023-02-28T09:14:05;3.80;99.90
9043;DHT22;4556;49.150;8.808;2023-02-28T09:16:33;1.50;99.90
9043;DHT22;4556;49.150;8.808;2023-02-28T09:19:02;1.20;99.90
9043;DHT22;4556;49.150;8.808;2023-02-28T09:21:29;1.10;99.90
9043;DHT22;4556;49.150;8.808;2023-02-28T09:23:56;3.50;99.90
9043;DHT22;4556;49.150;8.808;2023-02-28T09:26:25;3.00;99.90
9043;DHT22;4556;49.150;8.808;2023-02-28T09:28:54;4.80;99.90
9043;DHT22;4556;49.150;8.808;2023-02-28T09:31:23;3.60;99.90
9043;DHT22;4556;49.150;8.808;2023-02-28T09:33:52;2.10;99.90
9043;DHT22;4556;49.150;8.808;2023-02-28T09:36:22;3.00;99.90
9043;DHT22;4556;49.150;8.808;2023-02-28T09:38:49;1.50;99.90
9043;DHT22;4556;49.150;8.808;2023-02-28T09:41:20;3.60;99.90
9043;DHT22;4556;49.150;8.808;2023-02-28T09:43:52;1.30;99.90
9043;DHT22;4556;49.150;8.808;2023-02-28T09:46:30;3.80;99.90
9043;DHT22;4556;49.150;8.808;2023-02-28T09:49:02;1.20;99.90
9043;DHT22;4556;49.150;8.808;2023-02-28T09:51:44;3.40;99.90
9043;DHT22;4556;49.150;8.808;2023-02-28T09:54:15;1.50;99.90
9043;DHT22;4556;49.150;8.808;2023-02-28T09:56:48;4.30;99.90
9043;DHT22;4556;49.150;8.808;2023-02-28T09:59:29;2.70;99.90
9043;DHT22;4556;49.150;8.808;2023-02-28T10:02:04;1.70;99.90
9043;DHT22;4556;49.150;8.808;2023-02-28T10:04:43;1.80;99.90
9043;DHT22;4556;49.150;8.808;2023-02-28T10:07:33;-0.80;99.90
9043;DHT22;4556;49.150;8.808;2023-02-28T10:10:14;4.70;99.90
9043;DHT22;4556;49.150;8.808;2023-02-28T10:12:44;2.30;99.90
9043;DHT22;4556;49.150;8.808;2023-02-28T10:15:14;4.30;99.90
9043;DHT22;4556;49.150;8.808;2023-02-28T10:17:44;2.00;99.90
9043;DHT22;4556;49.150;8.808;2023-02-28T10:20:17;2.30;99.90
9043;DHT22;4556;49.150;8.808;2023-02-28T10:22:52;0.60;99.90
9043;DHT22;4556;49.150;8.808;2023-02-28T10:25:22;4.90;99.90
9043;DHT22;4556;49.150;8.808;2023-02-28T10:27:53;3.30;99.90
9043;DHT22;4556;49.150;8.808;2023-02-28T10:30:21;3.80;99.90
9043;DHT22;4556;49.150;8.808;2023-02-28T10:32:50;1.80;99.90
9043;DHT22;4556;49.150;8.808;2023-02-28T10:35:21;4.20;99.90
9043;DHT22;4556;49.150;8.808;2023-02-28T10:37:53;4.80;99.90
9043;DHT22;4556;49.150;8.808;2023-02-28T10:40:32;1.90;99.90
9043;DHT22;4556;49.150;8.808;2023-02-28T10:43:02;1.70;99.90
9043;DHT22;4556;49.150;8.808;2023-02-28T10:45:31;1.80;99.90
9043;DHT22;4556;49.150;8.808;2023-02-28T10:48:03;1.90;99.90
9043;DHT22;4556;49.150;8.808;2023-02-28T10:50:35;2.20;99.90
9043;DHT22;4556;49.150;8.808;2023-02-28T10:53:28;5.10;99.90
9043;DHT22;4556;49.150;8.808;2023-02-28T10:55:59;2.80;99.90
9043;DHT22;4556;49.150;8.808;2023-02-28T10:58:30;3.00;99.90
9043;DHT22;4556;49.150;8.808;2023-02-28T11:00:59;5.10;99.90
9043;DHT22;4556;49.150;8.808;2023-02-28T11:03:32;5.00;99.90
9043;DHT22;4556;49.150;8.808;2023-02-28T11:06:05;5.50;99.90
9043;DHT22;4556;49.150;8.808;2023-02-28T11:08:44;2.50;99.90
9043;DHT22;4556;49.150;8.808;2023-02-28T11:11:11;2.60;99.90
9043;DHT22;4556;49.150;8.808;2023-02-28T11:13:39;3.40;99.90
9043;DHT22;4556;49.150;8.808;2023-02-28T11:16:09;2.50;99.90
9043;DHT22;4556;49.150;8.808;2023-02-28T11:18:40;5.50;99.90
9043;DHT22;4556;49.150;8.808;2023-02-28T11:21:09;2.50;99.90
9043;DHT22;4556;49.150;8.808;2023-02-28T11:23:43;2.20;99.90
9043;DHT22;4556;49.150;8.808;2023-02-28T11:26:10;2.30;99.90
9043;DHT22;4556;49.150;8.808;2023-02-28T11:28:39;4.10;99.90
9043;DHT22;4556;49.150;8.808;2023-02-28T11:31:16;2.50;99.90
9043;DHT22;4556;49.150;8.808;2023-02-28T11:33:46;2.50;99.90
9043;DHT22;4556;49.150;8.808;2023-02-28T11:36:16;4.30;99.90
9043;DHT22;4556;49.150;8.808;2023-02-28T11:38:46;4.50;99.90
9043;DHT22;4556;49.150;8.808;2023-02-28T11:41:30;2.00;99.90
9043;DHT22;4556;49.150;8.808;2023-02-28T11:44:28;2.90;99.90
9043;DHT22;4556;49.150;8.808;2023-02-28T11:47:00;3.20;99.90
9043;DHT22;4556;49.150;8.808;2023-02-28T11:49:32;3.20;99.90
9043;DHT22;4556;49.150;8.808;2023-02-28T11:52:10;3.10;99.90
9043;DHT22;4556;49.150;8.808;2023-02-28T11:55:09;3.20;99.90
9043;DHT22;4556;49.150;8.808;2023-02-28T11:57:57;3.20;99.90
9043;DHT22;4556;49.150;8.808;2023-02-28T12:00:40;3.10;99.90
9043;DHT22;4556;49.150;8.808;2023-02-28T12:03:22;3.00;99.90
9043;DHT22;4556;49.150;8.808;2023-02-28T12:06:01;6.00;99.90
9043;DHT22;4556;49.150;8.808;2023-02-28T12:08:44;3.50;99.90
9043;DHT22;4556;49.150;8.808;2023-02-28T12:11:23;3.60;99.90
9043;DHT22;4556;49.150;8.808;2023-02-28T12:14:14;3.50;99.90
9043;DHT22;4556;49.150;8.808;2023-02-28T12:16:54;4.50;99.90
9043;DHT22;4556;49.150;8.808;2023-02-28T12:19:30;3.30;99.90
9043;DHT22;4556;49.150;8.808;2023-02-28T12:22:16;3.20;99.90
9043;DHT22;4556;49.150;8.808;2023-02-28T12:27:55;3.20;99.90
9043;DHT22;4556;49.150;8.808;2023-02-28T12:30:25;3.20;99.90
9043;DHT22;4556;49.150;8.808;2023-02-28T12:32:55;3.10;99.90
9043;DHT22;4556;49.150;8.808;2023-02-28T12:35:26;3.30;99.90
9043;DHT22;4556;49.150;8.808;2023-02-28T12:38:03;3.40;99.90
9043;DHT22;4556;49.150;8.808;2023-02-28T12:40:40;3.60;99.90
9043;DHT22;4556;49.150;8.808;2023-02-28T12:43:12;3.70;99.90
9043;DHT22;4556;49.150;8.808;2023-02-28T12:45:43;3.70;99.90
9043;DHT22;4556;49.150;8.808;2023-02-28T12:48:17;3.80;99.90
9043;DHT22;4556;49.150;8.808;2023-02-28T12:50:46;4.00;99.90
9043;DHT22;4556;49.150;8.808;2023-02-28T12:53:20;4.00;99.90
9043;DHT22;4556;49.150;8.808;2023-02-28T12:55:53;4.30;99.90
9043;DHT22;4556;49.150;8.808;2023-02-28T12:58:29;6.00;99.90
9043;DHT22;4556;49.150;8.808;2023-02-28T13:01:38;7.70;99.90
9043;DHT22;4556;49.150;8.808;2023-02-28T13:09:56;5.60;99.90
9043;DHT22;4556;49.150;8.808;2023-02-28T13:12:24;5.80;99.90
9043;DHT22;4556;49.150;8.808;2023-02-28T13:15:05;6.70;99.90
9043;DHT22;4556;49.150;8.808;2023-02-28T13:17:38;4.90;99.90
9043;DHT22;4556;49.150;8.808;2023-02-28T13:20:15;4.20;99.90
9043;DHT22;4556;49.150;8.808;2023-02-28T13:22:45;4.40;99.90
9043;DHT22;4556;49.150;8.808;2023-02-28T13:31:31;4.60;99.90
9043;DHT22;4556;49.150;8.808;2023-02-28T13:34:13;4.90;99.90
9043;DHT22;4556;49.150;8.808;2023-02-28T13:36:40;4.40;99.90
9043;DHT22;4556;49.150;8.808;2023-02-28T13:39:47;4.50;99.90
9043;DHT22;4556;49.150;8.808;2023-02-28T13:42:33;4.30;99.90
9043;DHT22;4556;49.150;8.808;2023-02-28T13:45:22;4.30;99.90
9043;DHT22;4556;49.150;8.808;2023-02-28T13:47:55;4.30;99.90
9043;DHT22;4556;49.150;8.808;2023-02-28T13:50:33;4.40;99.90
9043;DHT22;4556;49.150;8.808;2023-02-28T13:56:18;4.20;99.90
9043;DHT22;4556;49.150;8.808;2023-02-28T13:58:54;4.10;99.90
9043;DHT22;4556;49.150;8.808;2023-02-28T14:01:34;3.90;99.90
9043;DHT22;4556;49.150;8.808;2023-02-28T14:04:36;3.90;99.90
9043;DHT22;4556;49.150;8.808;2023-02-28T14:07:06;4.20;99.90
9043;DHT22;4556;49.150;8.808;2023-02-28T14:09:35;4.70;99.90
9043;DHT22;4556;49.150;8.808;2023-02-28T14:15:43;4.30;99.90
9043;DHT22;4556;49.150;8.808;2023-02-28T14:18:26;4.50;99.90
9043;DHT22;4556;49.150;8.808;2023-02-28T14:21:00;4.30;99.90
9043;DHT22;4556;49.150;8.808;2023-02-28T14:23:51;4.10;99.90
9043;DHT22;4556;49.150;8.808;2023-02-28T14:26:32;4.20;99.90
9043;DHT22;4556;49.150;8.808;2023-02-28T14:29:18;4.50;99.90
9043;DHT22;4556;49.150;8.808;2023-02-28T14:31:51;6.90;99.90
9043;DHT22;4556;49.150;8.808;2023-02-28T14:34:31;4.60;99.90
9043;DHT22;4556;49.150;8.808;2023-02-28T14:37:04;4.80;99.90
9043;DHT22;4556;49.150;8.808;2023-02-28T14:39:33;4.80;99.90
9043;DHT22;4556;49.150;8.808;2023-02-28T14:42:02;5.00;99.90
9043;DHT22;4556;49.150;8.808;2023-02-28T14:44:30;4.90;99.90
9043;DHT22;4556;49.150;8.808;2023-02-28T14:46:59;7.10;99.90
9043;DHT22;4556;49.150;8.808;2023-02-28T14:49:34;6.50;99.90
9043;DHT22;4556;49.150;8.808;2023-02-28T14:52:07;6.00;99.90
9043;DHT22;4556;49.150;8.808;2023-02-28T14:54:37;6.30;99.90
9043;DHT22;4556;49.150;8.808;2023-02-28T14:57:04;4.00;99.90
9043;DHT22;4556;49.150;8.808;2023-02-28T14:59:33;4.10;99.90
9043;DHT22;4556;49.150;8.808;2023-02-28T15:02:20;4.50;99.90
9043;DHT22;4556;49.150;8.808;2023-02-28T15:04:55;6.60;99.90
9043;DHT22;4556;49.150;8.808;2023-02-28T15:07:25;5.10;99.90
9043;DHT22;4556;49.150;8.808;2023-02-28T15:10:09;5.60;99.90
9043;DHT22;4556;49.150;8.808;2023-02-28T15:12:37;3.10;99.90
9043;DHT22;4556;49.150;8.808;2023-02-28T15:15:06;5.50;99.90
9043;DHT22;4556;49.150;8.808;2023-02-28T15:17:42;4.40;99.90
9043;DHT22;4556;49.150;8.808;2023-02-28T15:20:14;6.30;99.90
9043;DHT22;4556;49.150;8.808;2023-02-28T15:22:43;5.70;99.90
9043;DHT22;4556;49.150;8.808;2023-02-28T15:25:15;6.00;99.90
9043;DHT22;4556;49.150;8.808;2023-02-28T15:27:46;4.20;99.90
9043;DHT22;4556;49.150;8.808;2023-02-28T15:30:17;4.20;99.90
9043;DHT22;4556;49.150;8.808;2023-02-28T15:33:02;4.20;99.90
9043;DHT22;4556;49.150;8.808;2023-02-28T15:35:31;4.10;99.90
9043;DHT22;4556;49.150;8.808;2023-02-28T15:38:01;4.00;99.90
9043;DHT22;4556;49.150;8.808;2023-02-28T15:40:32;4.10;99.90
9043;DHT22;4556;49.150;8.808;2023-02-28T15:43:05;4.30;99.90
9043;DHT22;4556;49.150;8.808;2023-02-28T15:45:36;4.00;99.90
9043;DHT22;4556;49.150;8.808;2023-02-28T15:48:13;7.40;99.90
9043;DHT22;4556;49.150;8.808;2023-02-28T15:50:41;6.40;99.90
9043;DHT22;4556;49.150;8.808;2023-02-28T15:53:16;6.40;99.90
9043;DHT22;4556;49.150;8.808;2023-02-28T15:55:44;4.50;99.90
9043;DHT22;4556;49.150;8.808;2023-02-28T15:58:12;5.10;99.90
9043;DHT22;4556;49.150;8.808;2023-02-28T16:00:43;4.00;99.90
9043;DHT22;4556;49.150;8.808;2023-02-28T16:03:25;4.10;99.90
9043;DHT22;4556;49.150;8.808;2023-02-28T16:08:56;5.30;99.90
9043;DHT22;4556;49.150;8.808;2023-02-28T16:11:23;3.60;99.90
9043;DHT22;4556;49.150;8.808;2023-02-28T16:13:50;4.40;99.90
9043;DHT22;4556;49.150;8.808;2023-02-28T16:16:18;3.60;99.90
9043;DHT22;4556;49.150;8.808;2023-02-28T16:18:46;3.60;99.90
9043;DHT22;4556;49.150;8.808;2023-02-28T16:21:13;3.50;99.90
9043;DHT22;4556;49.150;8.808;2023-02-28T16:23:41;5.00;99.90
9043;DHT22;4556;49.150;8.808;2023-02-28T16:26:18;4.60;99.90
9043;DHT22;4556;49.150;8.808;2023-02-28T16:28:46;6.60;99.90
9043;DHT22;4556;49.150;8.808;2023-02-28T16:31:13;3.40;99.90
9043;DHT22;4556;49.150;8.808;2023-02-28T16:33:42;5.40;99.90
9043;DHT22;4556;49.150;8.808;2023-02-28T16:36:13;5.60;99.90
9043;DHT22;4556;49.150;8.808;2023-02-28T16:38:41;3.30;99.90
9043;DHT22;4556;49.150;8.808;2023-02-28T16:41:12;3.20;99.90
9043;DHT22;4556;49.150;8.808;2023-02-28T16:43:45;3.50;99.90
9043;DHT22;4556;49.150;8.808;2023-02-28T16:46:14;4.00;99.90
9043;DHT22;4556;49.150;8.808;2023-02-28T16:48:42;6.60;99.90
9043;DHT22;4556;49.150;8.808;2023-02-28T16:51:13;4.60;99.90
9043;DHT22;4556;49.150;8.808;2023-02-28T16:53:41;3.10;99.90
9043;DHT22;4556;49.150;8.808;2023-02-28T16:56:16;6.20;99.90
9043;DHT22;4556;49.150;8.808;2023-02-28T16:58:44;6.00;99.90
9043;DHT22;4556;49.150;8.808;2023-02-28T17:01:11;5.30;99.90
9043;DHT22;4556;49.150;8.808;2023-02-28T17:03:38;5.60;99.90
9043;DHT22;4556;49.150;8.808;2023-02-28T17:06:08;4.50;99.90
9043;DHT22;4556;49.150;8.808;2023-02-28T17:08:41;3.10;99.90
9043;DHT22;4556;49.150;8.808;2023-02-28T17:11:08;5.00;99.90
9043;DHT22;4556;49.150;8.808;2023-02-28T17:13:37;2.90;99.90
9043;DHT22;4556;49.150;8.808;2023-02-28T17:16:05;5.30;99.90
9043;DHT22;4556;49.150;8.808;2023-02-28T17:18:33;2.60;99.90
9043;DHT22;4556;49.150;8.808;2023-02-28T17:21:00;4.00;99.90
9043;DHT22;4556;49.150;8.808;2023-02-28T17:23:27;2.60;99.90
9043;DHT22;4556;49.150;8.808;2023-02-28T17:25:54;2.50;99.90
9043;DHT22;4556;49.150;8.808;2023-02-28T17:28:21;5.20;99.90
9043;DHT22;4556;49.150;8.808;2023-02-28T17:30:50;3.40;99.90
9043;DHT22;4556;49.150;8.808;2023-02-28T17:33:18;4.20;99.90
9043;DHT22;4556;49.150;8.808;2023-02-28T17:35:45;5.20;99.90
9043;DHT22;4556;49.150;8.808;2023-02-28T17:38:16;2.70;99.90
9043;DHT22;4556;49.150;8.808;2023-02-28T17:40:43;2.40;99.90